CKM3 weather

Shilo Heliport
Shilo, Manitoba, Canada

Public forecast

Using degrees Celsius for public forecast. Weather courtesy of forecast.io.

Closest aviation weather report (METAR) to Shilo Heliport

Closest report is Brandon Municipal Airport, 14.0 nm (25.9 km) WNW. Retrieved 2019/10/15 20:00 UTC (58 minutes ago):

CYBR 152000Z 32013KT 15SM SCT020 OVC046 04/M00 A3013 RMK SC3SC5 SLP225

Closest aviation forecast (TAF) to Shilo Heliport

Closest forecast is Brandon Municipal Airport, 14.0 nm (25.9 km) WNW. Retrieved 2019/10/15 18:39 UTC (2 hours ago):

TAF CYBR 151738Z 1518/1606 34012KT P6SM BKN030 TEMPO 1518/1603 P6SM -SHRA BKN015 FM160300 33007KT P6SM BKN030 TEMPO 1603/1606 BKN015 RMK NXT FCST BY 160000Z